sensor_id;sensor_type;location;lat;lon;timestamp;pressure;altitude;pressure_sealevel;temperature;humidity
34177;BME280;20450;49.074;9.158;2024-03-22T00:01:46;100486.16;;;10.92;76.96
34177;BME280;20450;49.074;9.158;2024-03-22T00:04:12;100483.63;;;10.84;77.85
34177;BME280;20450;49.074;9.158;2024-03-22T00:06:39;100492.66;;;10.70;78.26
34177;BME280;20450;49.074;9.158;2024-03-22T00:09:05;100493.13;;;10.53;80.07
34177;BME280;20450;49.074;9.158;2024-03-22T00:11:31;100488.41;;;10.40;81.14
34177;BME280;20450;49.074;9.158;2024-03-22T00:13:57;100482.47;;;10.24;81.74
34177;BME280;20450;49.074;9.158;2024-03-22T00:16:25;100483.94;;;10.26;81.73
34177;BME280;20450;49.074;9.158;2024-03-22T00:18:51;100483.41;;;10.37;81.28
34177;BME280;20450;49.074;9.158;2024-03-22T00:21:17;100483.53;;;10.29;80.94
34177;BME280;20450;49.074;9.158;2024-03-22T00:23:43;100478.03;;;10.16;80.99
34177;BME280;20450;49.074;9.158;2024-03-22T00:26:09;100470.53;;;9.82;82.23
34177;BME280;20450;49.074;9.158;2024-03-22T00:28:35;100468.81;;;9.60;83.57
34177;BME280;20450;49.074;9.158;2024-03-22T00:31:01;100458.94;;;9.67;83.14
34177;BME280;20450;49.074;9.158;2024-03-22T00:33:28;100455.06;;;9.70;83.64
34177;BME280;20450;49.074;9.158;2024-03-22T00:35:54;100446.75;;;9.71;83.62
34177;BME280;20450;49.074;9.158;2024-03-22T00:38:20;100452.22;;;9.78;82.70
34177;BME280;20450;49.074;9.158;2024-03-22T00:40:46;100450.69;;;9.90;82.79
34177;BME280;20450;49.074;9.158;2024-03-22T00:43:12;100442.34;;;10.06;81.44
34177;BME280;20450;49.074;9.158;2024-03-22T00:45:38;100444.41;;;10.19;80.80
34177;BME280;20450;49.074;9.158;2024-03-22T00:48:05;100445.28;;;10.26;80.83
34177;BME280;20450;49.074;9.158;2024-03-22T00:50:33;100435.94;;;10.28;80.45
34177;BME280;20450;49.074;9.158;2024-03-22T00:52:59;100431.94;;;10.18;80.49
34177;BME280;20450;49.074;9.158;2024-03-22T00:55:25;100431.44;;;9.93;80.87
34177;BME280;20450;49.074;9.158;2024-03-22T00:57:51;100430.97;;;9.68;81.58
34177;BME280;20450;49.074;9.158;2024-03-22T01:00:17;100428.09;;;9.55;82.69
34177;BME280;20450;49.074;9.158;2024-03-22T01:02:44;100421.03;;;9.54;83.11
34177;BME280;20450;49.074;9.158;2024-03-22T01:05:10;100419.00;;;9.42;83.28
34177;BME280;20450;49.074;9.158;2024-03-22T01:07:37;100407.28;;;9.35;84.16
34177;BME280;20450;49.074;9.158;2024-03-22T01:10:04;100411.88;;;9.20;84.34
34177;BME280;20450;49.074;9.158;2024-03-22T01:12:30;100410.97;;;9.13;84.20
34177;BME280;20450;49.074;9.158;2024-03-22T01:14:56;100408.81;;;9.08;84.31
34177;BME280;20450;49.074;9.158;2024-03-22T01:17:22;100402.22;;;9.11;84.08
34177;BME280;20450;49.074;9.158;2024-03-22T01:19:49;100408.44;;;9.11;84.85
34177;BME280;20450;49.074;9.158;2024-03-22T01:22:15;100408.53;;;9.18;84.71
34177;BME280;20450;49.074;9.158;2024-03-22T01:24:44;100403.75;;;9.34;84.75
34177;BME280;20450;49.074;9.158;2024-03-22T01:27:10;100403.38;;;9.52;83.89
34177;BME280;20450;49.074;9.158;2024-03-22T01:29:36;100395.03;;;9.68;82.23
34177;BME280;20450;49.074;9.158;2024-03-22T01:32:03;100393.13;;;9.83;81.16
34177;BME280;20450;49.074;9.158;2024-03-22T01:34:29;100397.19;;;9.93;80.54
34177;BME280;20450;49.074;9.158;2024-03-22T01:36:55;100395.19;;;10.02;79.33
34177;BME280;20450;49.074;9.158;2024-03-22T01:39:21;100390.09;;;10.07;78.97
34177;BME280;20450;49.074;9.158;2024-03-22T01:41:50;100393.94;;;9.83;79.74
34177;BME280;20450;49.074;9.158;2024-03-22T01:44:16;100391.63;;;9.80;80.66
34177;BME280;20450;49.074;9.158;2024-03-22T01:46:43;100390.03;;;9.65;81.50
34177;BME280;20450;49.074;9.158;2024-03-22T01:49:12;100389.38;;;9.63;81.22
34177;BME280;20450;49.074;9.158;2024-03-22T01:51:41;100389.38;;;9.63;81.91
34177;BME280;20450;49.074;9.158;2024-03-22T01:54:09;100385.34;;;9.73;80.92
34177;BME280;20450;49.074;9.158;2024-03-22T01:56:36;100382.53;;;9.81;80.50
34177;BME280;20450;49.074;9.158;2024-03-22T01:59:04;100367.44;;;9.87;78.65
34177;BME280;20450;49.074;9.158;2024-03-22T02:01:31;100372.53;;;9.96;78.06
34177;BME280;20450;49.074;9.158;2024-03-22T02:03:57;100363.84;;;10.01;77.96
34177;BME280;20450;49.074;9.158;2024-03-22T02:06:24;100375.91;;;10.05;77.51
34177;BME280;20450;49.074;9.158;2024-03-22T02:08:50;100359.72;;;10.05;77.53
34177;BME280;20450;49.074;9.158;2024-03-22T02:11:16;100360.09;;;10.02;78.10
34177;BME280;20450;49.074;9.158;2024-03-22T02:13:42;100367.03;;;9.90;79.00
34177;BME280;20450;49.074;9.158;2024-03-22T02:16:10;100360.69;;;9.76;78.50
34177;BME280;20450;49.074;9.158;2024-03-22T02:18:36;100365.25;;;9.76;78.40
34177;BME280;20450;49.074;9.158;2024-03-22T02:21:02;100354.13;;;9.64;77.96
34177;BME280;20450;49.074;9.158;2024-03-22T02:23:32;100357.84;;;9.63;78.49
34177;BME280;20450;49.074;9.158;2024-03-22T02:25:59;100360.28;;;9.58;79.18
34177;BME280;20450;49.074;9.158;2024-03-22T02:28:25;100351.41;;;9.64;79.19
34177;BME280;20450;49.074;9.158;2024-03-22T02:30:51;100346.94;;;9.71;78.63
34177;BME280;20450;49.074;9.158;2024-03-22T02:33:17;100347.38;;;9.75;78.49
34177;BME280;20450;49.074;9.158;2024-03-22T02:35:46;100342.00;;;9.75;79.25
34177;BME280;20450;49.074;9.158;2024-03-22T02:38:12;100353.63;;;9.75;78.14
34177;BME280;20450;49.074;9.158;2024-03-22T02:40:39;100347.38;;;9.75;78.41
34177;BME280;20450;49.074;9.158;2024-03-22T02:43:06;100344.88;;;9.73;79.68
34177;BME280;20450;49.074;9.158;2024-03-22T02:45:32;100349.84;;;9.70;80.57
34177;BME280;20450;49.074;9.158;2024-03-22T02:47:58;100340.31;;;9.74;80.55
34177;BME280;20450;49.074;9.158;2024-03-22T02:50:24;100341.59;;;9.78;80.32
34177;BME280;20450;49.074;9.158;2024-03-22T02:52:50;100341.88;;;9.83;80.24
34177;BME280;20450;49.074;9.158;2024-03-22T02:55:16;100340.31;;;9.74;80.97
34177;BME280;20450;49.074;9.158;2024-03-22T02:57:43;100343.78;;;9.47;81.13
34177;BME280;20450;49.074;9.158;2024-03-22T03:00:12;100339.50;;;9.38;82.10
34177;BME280;20450;49.074;9.158;2024-03-22T03:02:39;100332.94;;;9.26;82.17
34177;BME280;20450;49.074;9.158;2024-03-22T03:05:05;100330.75;;;9.00;82.46
34177;BME280;20450;49.074;9.158;2024-03-22T03:07:32;100328.81;;;8.94;83.57
34177;BME280;20450;49.074;9.158;2024-03-22T03:09:58;100328.09;;;8.86;84.20
34177;BME280;20450;49.074;9.158;2024-03-22T03:12:24;100328.81;;;8.94;84.51
34177;BME280;20450;49.074;9.158;2024-03-22T03:14:51;100325.09;;;9.10;84.12
34177;BME280;20450;49.074;9.158;2024-03-22T03:17:17;100328.78;;;9.23;83.87
34177;BME280;20450;49.074;9.158;2024-03-22T03:19:43;100322.88;;;9.13;84.17
34177;BME280;20450;49.074;9.158;2024-03-22T03:22:10;100325.69;;;9.26;83.94
34177;BME280;20450;49.074;9.158;2024-03-22T03:24:36;100322.97;;;9.41;83.16
34177;BME280;20450;49.074;9.158;2024-03-22T03:27:02;100328.44;;;9.47;81.96
34177;BME280;20450;49.074;9.158;2024-03-22T03:29:28;100324.28;;;9.30;81.74
34177;BME280;20450;49.074;9.158;2024-03-22T03:31:55;100326.16;;;9.30;81.48
34177;BME280;20450;49.074;9.158;2024-03-22T03:34:21;100327.75;;;9.24;82.12
34177;BME280;20450;49.074;9.158;2024-03-22T03:36:47;100320.22;;;9.20;82.53
34177;BME280;20450;49.074;9.158;2024-03-22T03:39:13;100321.63;;;9.16;83.43
34177;BME280;20450;49.074;9.158;2024-03-22T03:41:39;100318.94;;;9.16;83.15
34177;BME280;20450;49.074;9.158;2024-03-22T03:44:05;100319.78;;;9.16;83.35
34177;BME280;20450;49.074;9.158;2024-03-22T03:46:31;100328.72;;;9.38;82.97
34177;BME280;20450;49.074;9.158;2024-03-22T03:48:59;100316.53;;;9.42;82.21
34177;BME280;20450;49.074;9.158;2024-03-22T03:51:25;100314.16;;;9.32;82.25
34177;BME280;20450;49.074;9.158;2024-03-22T03:53:51;100312.28;;;9.12;83.83
34177;BME280;20450;49.074;9.158;2024-03-22T03:56:17;100304.19;;;9.12;84.37
34177;BME280;20450;49.074;9.158;2024-03-22T03:58:45;100306.13;;;9.18;84.54
34177;BME280;20450;49.074;9.158;2024-03-22T04:01:11;100305.03;;;9.33;83.99
34177;BME280;20450;49.074;9.158;2024-03-22T04:03:37;100299.84;;;9.53;82.90
34177;BME280;20450;49.074;9.158;2024-03-22T04:06:04;100300.16;;;9.64;82.50
34177;BME280;20450;49.074;9.158;2024-03-22T04:08:31;100299.09;;;9.80;81.30
34177;BME280;20450;49.074;9.158;2024-03-22T04:10:58;100297.34;;;9.93;80.63
34177;BME280;20450;49.074;9.158;2024-03-22T04:13:25;100302.00;;;10.06;80.73
34177;BME280;20450;49.074;9.158;2024-03-22T04:15:52;100298.34;;;10.14;80.26
34177;BME280;20450;49.074;9.158;2024-03-22T04:18:18;100304.84;;;10.19;80.09
34177;BME280;20450;49.074;9.158;2024-03-22T04:20:54;100307.00;;;10.30;79.99
34177;BME280;20450;49.074;9.158;2024-03-22T04:23:23;100299.34;;;10.34;79.24
34177;BME280;20450;49.074;9.158;2024-03-22T04:25:54;100303.06;;;10.33;78.85
34177;BME280;20450;49.074;9.158;2024-03-22T04:28:21;100310.16;;;10.34;78.37
34177;BME280;20450;49.074;9.158;2024-03-22T04:30:55;100307.47;;;10.40;78.63
34177;BME280;20450;49.074;9.158;2024-03-22T04:33:22;100313.13;;;10.45;79.08
34177;BME280;20450;49.074;9.158;2024-03-22T04:35:48;100314.59;;;10.48;78.94
34177;BME280;20450;49.074;9.158;2024-03-22T04:38:14;100317.09;;;10.49;79.32
34177;BME280;20450;49.074;9.158;2024-03-22T04:40:41;100317.75;;;10.51;79.19
34177;BME280;20450;49.074;9.158;2024-03-22T04:43:08;100322.28;;;10.51;79.21
34177;BME280;20450;49.074;9.158;2024-03-22T04:45:34;100322.09;;;10.52;79.53
34177;BME280;20450;49.074;9.158;2024-03-22T04:48:01;100325.25;;;10.56;79.13
34177;BME280;20450;49.074;9.158;2024-03-22T04:50:27;100314.44;;;10.56;78.65
34177;BME280;20450;49.074;9.158;2024-03-22T04:52:54;100320.44;;;10.51;78.83
34177;BME280;20450;49.074;9.158;2024-03-22T04:55:20;100309.78;;;10.43;79.18
34177;BME280;20450;49.074;9.158;2024-03-22T04:57:48;100318.06;;;10.42;79.29
34177;BME280;20450;49.074;9.158;2024-03-22T05:00:15;100308.44;;;10.26;79.92
34177;BME280;20450;49.074;9.158;2024-03-22T05:02:41;100302.16;;;10.19;79.98
34177;BME280;20450;49.074;9.158;2024-03-22T05:05:07;100300.53;;;10.25;80.55
34177;BME280;20450;49.074;9.158;2024-03-22T05:07:34;100303.94;;;9.91;80.50
34177;BME280;20450;49.074;9.158;2024-03-22T05:10:00;100309.75;;;9.46;81.47
34177;BME280;20450;49.074;9.158;2024-03-22T05:12:27;100304.97;;;9.27;83.16
34177;BME280;20450;49.074;9.158;2024-03-22T05:14:55;100302.78;;;9.16;83.71
34177;BME280;20450;49.074;9.158;2024-03-22T05:17:21;100296.91;;;9.12;83.97
34177;BME280;20450;49.074;9.158;2024-03-22T05:19:47;100295.25;;;9.11;83.98
34177;BME280;20450;49.074;9.158;2024-03-22T05:22:13;100297.13;;;9.32;83.64
34177;BME280;20450;49.074;9.158;2024-03-22T05:24:39;100296.50;;;9.30;83.49
34177;BME280;20450;49.074;9.158;2024-03-22T05:27:05;100297.34;;;9.30;83.82
34177;BME280;20450;49.074;9.158;2024-03-22T05:29:31;100286.44;;;9.38;83.67
34177;BME280;20450;49.074;9.158;2024-03-22T05:31:58;100290.69;;;9.47;82.93
34177;BME280;20450;49.074;9.158;2024-03-22T05:34:25;100278.78;;;9.63;82.08
34177;BME280;20450;49.074;9.158;2024-03-22T05:36:50;100282.97;;;9.65;82.04
34177;BME280;20450;49.074;9.158;2024-03-22T05:39:17;100281.63;;;9.76;81.35
34177;BME280;20450;49.074;9.158;2024-03-22T05:41:43;100280.69;;;9.90;80.56
34177;BME280;20450;49.074;9.158;2024-03-22T05:44:09;100270.38;;;10.00;80.26
34177;BME280;20450;49.074;9.158;2024-03-22T05:46:35;100267.00;;;10.13;79.78
34177;BME280;20450;49.074;9.158;2024-03-22T05:49:02;100270.75;;;10.18;79.31
34177;BME280;20450;49.074;9.158;2024-03-22T05:51:28;100269.38;;;10.22;79.58
34177;BME280;20450;49.074;9.158;2024-03-22T05:53:54;100265.69;;;10.36;79.30
34177;BME280;20450;49.074;9.158;2024-03-22T05:56:20;100261.66;;;10.53;78.85
34177;BME280;20450;49.074;9.158;2024-03-22T05:58:46;100269.22;;;10.71;78.71
34177;BME280;20450;49.074;9.158;2024-03-22T06:01:12;100263.22;;;10.82;77.77
34177;BME280;20450;49.074;9.158;2024-03-22T06:03:38;100262.91;;;10.98;76.94
34177;BME280;20450;49.074;9.158;2024-03-22T06:06:06;100263.09;;;11.03;76.32
34177;BME280;20450;49.074;9.158;2024-03-22T06:08:32;100262.94;;;11.11;75.72
34177;BME280;20450;49.074;9.158;2024-03-22T06:11:01;100256.75;;;11.30;75.21
34177;BME280;20450;49.074;9.158;2024-03-22T06:13:27;100261.13;;;11.37;74.69
34177;BME280;20450;49.074;9.158;2024-03-22T06:15:53;100258.66;;;11.42;73.91
34177;BME280;20450;49.074;9.158;2024-03-22T06:18:19;100262.03;;;10.91;75.66
34177;BME280;20450;49.074;9.158;2024-03-22T06:20:45;100259.88;;;10.73;76.46
34177;BME280;20450;49.074;9.158;2024-03-22T06:23:13;100257.13;;;10.60;77.00
34177;BME280;20450;49.074;9.158;2024-03-22T06:25:38;100257.53;;;10.30;77.41
34177;BME280;20450;49.074;9.158;2024-03-22T06:28:08;100255.88;;;10.63;77.35
34177;BME280;20450;49.074;9.158;2024-03-22T06:30:34;100256.28;;;11.13;77.01
34177;BME280;20450;49.074;9.158;2024-03-22T06:33:00;100254.56;;;11.79;74.30
34177;BME280;20450;49.074;9.158;2024-03-22T06:35:26;100254.94;;;12.35;71.65
34177;BME280;20450;49.074;9.158;2024-03-22T06:37:52;100251.72;;;12.70;69.83
34177;BME280;20450;49.074;9.158;2024-03-22T06:40:19;100251.56;;;13.09;68.54
34177;BME280;20450;49.074;9.158;2024-03-22T06:42:46;100252.84;;;13.44;67.14
34177;BME280;20450;49.074;9.158;2024-03-22T06:45:13;100239.50;;;13.67;66.67
34177;BME280;20450;49.074;9.158;2024-03-22T06:47:39;100237.53;;;14.30;64.46
34177;BME280;20450;49.074;9.158;2024-03-22T06:50:07;100240.28;;;14.66;62.65
34177;BME280;20450;49.074;9.158;2024-03-22T06:52:33;100242.38;;;15.00;61.75
34177;BME280;20450;49.074;9.158;2024-03-22T06:54:59;100231.25;;;15.31;60.17
34177;BME280;20450;49.074;9.158;2024-03-22T06:57:28;100230.53;;;15.24;60.37
34177;BME280;20450;49.074;9.158;2024-03-22T06:59:54;100230.81;;;15.05;60.20
34177;BME280;20450;49.074;9.158;2024-03-22T07:02:20;100229.59;;;15.01;60.69
34177;BME280;20450;49.074;9.158;2024-03-22T07:04:46;100222.66;;;14.87;60.93
34177;BME280;20450;49.074;9.158;2024-03-22T07:07:12;100222.22;;;15.79;59.52
34177;BME280;20450;49.074;9.158;2024-03-22T07:09:39;100220.97;;;15.51;58.17
34177;BME280;20450;49.074;9.158;2024-03-22T07:12:05;100214.50;;;14.69;61.01
34177;BME280;20450;49.074;9.158;2024-03-22T07:14:32;100212.63;;;14.87;61.32
34177;BME280;20450;49.074;9.158;2024-03-22T07:16:58;100216.47;;;15.68;57.79
34177;BME280;20450;49.074;9.158;2024-03-22T07:19:26;100208.13;;;15.40;58.24
34177;BME280;20450;49.074;9.158;2024-03-22T07:21:56;100211.47;;;15.42;58.28
34177;BME280;20450;49.074;9.158;2024-03-22T07:24:22;100228.09;;;16.91;53.93
34177;BME280;20450;49.074;9.158;2024-03-22T07:26:48;100236.16;;;18.15;50.65
34177;BME280;20450;49.074;9.158;2024-03-22T07:29:14;100241.25;;;17.78;50.25
34177;BME280;20450;49.074;9.158;2024-03-22T07:31:42;100230.16;;;17.68;51.04
34177;BME280;20450;49.074;9.158;2024-03-22T07:34:08;100235.06;;;17.99;50.38
34177;BME280;20450;49.074;9.158;2024-03-22T07:36:37;100242.72;;;19.11;48.22
34177;BME280;20450;49.074;9.158;2024-03-22T07:39:03;100253.59;;;19.76;46.42
34177;BME280;20450;49.074;9.158;2024-03-22T07:41:29;100219.47;;;18.16;50.03
34177;BME280;20450;49.074;9.158;2024-03-22T07:43:55;100244.34;;;19.56;47.39
34177;BME280;20450;49.074;9.158;2024-03-22T07:46:21;100263.63;;;21.07;43.34
34177;BME280;20450;49.074;9.158;2024-03-22T07:48:49;100288.16;;;22.55;40.23
34177;BME280;20450;49.074;9.158;2024-03-22T07:51:15;100296.78;;;23.28;39.03
34177;BME280;20450;49.074;9.158;2024-03-22T07:53:41;100320.34;;;24.12;36.41
34177;BME280;20450;49.074;9.158;2024-03-22T07:56:07;100325.25;;;24.54;35.47
34177;BME280;20450;49.074;9.158;2024-03-22T07:58:33;100355.09;;;25.61;33.33
34177;BME280;20450;49.074;9.158;2024-03-22T08:00:59;100349.81;;;25.65;33.34
34177;BME280;20450;49.074;9.158;2024-03-22T08:03:25;100353.25;;;25.28;33.26
34177;BME280;20450;49.074;9.158;2024-03-22T08:05:52;100334.56;;;24.63;34.12
34177;BME280;20450;49.074;9.158;2024-03-22T08:08:18;100313.63;;;23.80;35.91
34177;BME280;20450;49.074;9.158;2024-03-22T08:10:45;100274.06;;;21.77;39.99
34177;BME280;20450;49.074;9.158;2024-03-22T08:13:12;100235.22;;;20.81;42.28
34177;BME280;20450;49.074;9.158;2024-03-22T08:15:38;100206.22;;;19.49;45.54
34177;BME280;20450;49.074;9.158;2024-03-22T08:18:05;100204.84;;;20.15;44.46
34177;BME280;20450;49.074;9.158;2024-03-22T08:20:31;100207.56;;;20.10;44.67
34177;BME280;20450;49.074;9.158;2024-03-22T08:22:58;100175.34;;;18.08;50.17
34177;BME280;20450;49.074;9.158;2024-03-22T08:25:24;100194.06;;;19.18;47.34
34177;BME280;20450;49.074;9.158;2024-03-22T08:27:50;100187.59;;;19.03;47.89
34177;BME280;20450;49.074;9.158;2024-03-22T08:30:16;100195.81;;;19.83;46.52
34177;BME280;20450;49.074;9.158;2024-03-22T08:32:43;100188.72;;;19.28;46.86
34177;BME280;20450;49.074;9.158;2024-03-22T08:35:09;100170.88;;;17.52;50.91
34177;BME280;20450;49.074;9.158;2024-03-22T08:37:35;100172.28;;;17.88;49.91
34177;BME280;20450;49.074;9.158;2024-03-22T08:40:03;100168.41;;;17.84;51.21
34177;BME280;20450;49.074;9.158;2024-03-22T08:42:29;100166.31;;;18.45;49.49
34177;BME280;20450;49.074;9.158;2024-03-22T08:44:55;100178.09;;;18.67;48.26
34177;BME280;20450;49.074;9.158;2024-03-22T08:47:21;100161.88;;;18.61;49.92
34177;BME280;20450;49.074;9.158;2024-03-22T08:49:47;100163.66;;;19.20;48.22
34177;BME280;20450;49.074;9.158;2024-03-22T08:52:13;100143.28;;;18.41;50.96
34177;BME280;20450;49.074;9.158;2024-03-22T08:54:39;100144.19;;;17.92;51.98
34177;BME280;20450;49.074;9.158;2024-03-22T08:57:07;100141.66;;;17.08;54.10
34177;BME280;20450;49.074;9.158;2024-03-22T08:59:33;100141.47;;;17.92;53.10
34177;BME280;20450;49.074;9.158;2024-03-22T09:01:59;100149.56;;;18.58;51.45
34177;BME280;20450;49.074;9.158;2024-03-22T09:04:25;100154.84;;;19.39;49.35
34177;BME280;20450;49.074;9.158;2024-03-22T09:06:51;100154.81;;;19.34;47.96
34177;BME280;20450;49.074;9.158;2024-03-22T09:09:17;100142.88;;;18.97;48.86
34177;BME280;20450;49.074;9.158;2024-03-22T09:11:47;100147.69;;;19.65;48.44
34177;BME280;20450;49.074;9.158;2024-03-22T09:14:15;100153.06;;;19.87;47.46
34177;BME280;20450;49.074;9.158;2024-03-22T09:16:42;100161.34;;;19.92;46.56
34177;BME280;20450;49.074;9.158;2024-03-22T09:19:11;100164.53;;;20.15;45.48
34177;BME280;20450;49.074;9.158;2024-03-22T09:21:40;100166.81;;;20.85;45.00
34177;BME280;20450;49.074;9.158;2024-03-22T09:24:07;100148.09;;;20.15;46.05
34177;BME280;20450;49.074;9.158;2024-03-22T09:26:35;100157.88;;;21.14;44.51
34177;BME280;20450;49.074;9.158;2024-03-22T09:29:01;100177.81;;;21.77;41.91
34177;BME280;20450;49.074;9.158;2024-03-22T09:31:30;100185.13;;;21.26;42.14
34177;BME280;20450;49.074;9.158;2024-03-22T09:33:56;100155.53;;;20.20;44.09
34177;BME280;20450;49.074;9.158;2024-03-22T09:36:22;100115.72;;;19.44;47.00
34177;BME280;20450;49.074;9.158;2024-03-22T09:38:48;100102.72;;;19.29;47.92
34177;BME280;20450;49.074;9.158;2024-03-22T09:41:15;100093.56;;;18.92;49.56
34177;BME280;20450;49.074;9.158;2024-03-22T09:43:47;100095.97;;;18.62;49.68
34177;BME280;20450;49.074;9.158;2024-03-22T09:46:15;100090.63;;;18.51;50.19
34177;BME280;20450;49.074;9.158;2024-03-22T09:48:43;100080.59;;;18.83;50.23
34177;BME280;20450;49.074;9.158;2024-03-22T09:51:24;100087.00;;;19.52;48.76
34177;BME280;20450;49.074;9.158;2024-03-22T09:53:51;100095.09;;;20.10;46.55
34177;BME280;20450;49.074;9.158;2024-03-22T09:56:20;100086.09;;;19.78;46.83
34177;BME280;20450;49.074;9.158;2024-03-22T09:58:47;100091.56;;;20.76;45.51
34177;BME280;20450;49.074;9.158;2024-03-22T10:01:13;100095.84;;;21.59;43.06
34177;BME280;20450;49.074;9.158;2024-03-22T10:03:42;100081.50;;;20.30;45.24
34177;BME280;20450;49.074;9.158;2024-03-22T10:06:10;100044.66;;;18.74;49.38
34177;BME280;20450;49.074;9.158;2024-03-22T10:08:36;100058.13;;;19.39;47.97
34177;BME280;20450;49.074;9.158;2024-03-22T10:11:02;100052.31;;;19.67;48.26
34177;BME280;20450;49.074;9.158;2024-03-22T10:13:28;100037.00;;;19.03;48.91
34177;BME280;20450;49.074;9.158;2024-03-22T10:15:54;100029.41;;;18.35;50.32
34177;BME280;20450;49.074;9.158;2024-03-22T10:18:22;100035.16;;;18.55;50.61
34177;BME280;20450;49.074;9.158;2024-03-22T10:21:00;100045.38;;;19.23;48.58
34177;BME280;20450;49.074;9.158;2024-03-22T10:23:26;100034.53;;;19.06;49.20
34177;BME280;20450;49.074;9.158;2024-03-22T10:25:52;100030.72;;;18.54;49.98
34177;BME280;20450;49.074;9.158;2024-03-22T10:28:19;100023.38;;;19.13;49.38
34177;BME280;20450;49.074;9.158;2024-03-22T10:30:47;100015.38;;;19.06;49.93
34177;BME280;20450;49.074;9.158;2024-03-22T10:33:16;100019.50;;;19.35;48.23
34177;BME280;20450;49.074;9.158;2024-03-22T10:35:44;100048.00;;;20.23;45.87
34177;BME280;20450;49.074;9.158;2024-03-22T10:38:14;100039.38;;;20.66;44.62
34177;BME280;20450;49.074;9.158;2024-03-22T10:40:45;100044.97;;;21.36;43.79
34177;BME280;20450;49.074;9.158;2024-03-22T10:43:11;100042.72;;;22.03;42.92
34177;BME280;20450;49.074;9.158;2024-03-22T10:45:38;100057.84;;;22.69;40.39
34177;BME280;20450;49.074;9.158;2024-03-22T10:48:09;100067.09;;;22.88;38.75
34177;BME280;20450;49.074;9.158;2024-03-22T10:50:38;100075.44;;;23.27;38.73
34177;BME280;20450;49.074;9.158;2024-03-22T10:53:07;100074.13;;;23.82;38.05
34177;BME280;20450;49.074;9.158;2024-03-22T10:55:42;100075.41;;;23.61;37.74
34177;BME280;20450;49.074;9.158;2024-03-22T10:58:14;100061.78;;;23.02;38.92
34177;BME280;20450;49.074;9.158;2024-03-22T11:00:41;100037.72;;;22.74;39.23
34177;BME280;20450;49.074;9.158;2024-03-22T11:03:08;100040.66;;;22.87;38.58
34177;BME280;20450;49.074;9.158;2024-03-22T11:05:34;100037.56;;;23.38;38.28
34177;BME280;20450;49.074;9.158;2024-03-22T11:08:09;100039.41;;;23.76;37.59
34177;BME280;20450;49.074;9.158;2024-03-22T11:10:36;100042.09;;;23.24;38.03
34177;BME280;20450;49.074;9.158;2024-03-22T11:13:05;100020.31;;;22.83;38.68
34177;BME280;20450;49.074;9.158;2024-03-22T11:15:32;100023.63;;;23.53;37.94
34177;BME280;20450;49.074;9.158;2024-03-22T11:17:59;100005.13;;;22.37;38.90
34177;BME280;20450;49.074;9.158;2024-03-22T11:20:25;99986.44;;;22.29;40.12
34177;BME280;20450;49.074;9.158;2024-03-22T11:22:52;99989.91;;;22.98;39.21
34177;BME280;20450;49.074;9.158;2024-03-22T11:25:19;99974.75;;;22.57;40.13
34177;BME280;20450;49.074;9.158;2024-03-22T11:27:46;99974.91;;;22.27;39.36
34177;BME280;20450;49.074;9.158;2024-03-22T11:30:14;99959.53;;;22.70;39.59
34177;BME280;20450;49.074;9.158;2024-03-22T11:32:41;99978.69;;;23.18;38.79
34177;BME280;20450;49.074;9.158;2024-03-22T11:35:07;99996.00;;;23.29;36.64
34177;BME280;20450;49.074;9.158;2024-03-22T11:37:33;100009.09;;;23.42;36.66
34177;BME280;20450;49.074;9.158;2024-03-22T11:39:59;99994.53;;;23.42;36.21
34177;BME280;20450;49.074;9.158;2024-03-22T11:42:25;99992.72;;;23.27;36.46
34177;BME280;20450;49.074;9.158;2024-03-22T11:44:52;99981.75;;;23.17;36.65
34177;BME280;20450;49.074;9.158;2024-03-22T11:47:20;99967.38;;;23.25;36.96
34177;BME280;20450;49.074;9.158;2024-03-22T11:49:46;99964.19;;;23.08;36.89
34177;BME280;20450;49.074;9.158;2024-03-22T11:52:12;99959.63;;;22.55;37.19
34177;BME280;20450;49.074;9.158;2024-03-22T11:54:39;99955.59;;;22.32;37.14
34177;BME280;20450;49.074;9.158;2024-03-22T11:57:05;99946.97;;;21.95;37.68
34177;BME280;20450;49.074;9.158;2024-03-22T11:59:31;99941.75;;;21.99;37.82
34177;BME280;20450;49.074;9.158;2024-03-22T12:01:57;99946.75;;;21.82;37.64
34177;BME280;20450;49.074;9.158;2024-03-22T12:04:24;99925.63;;;21.62;38.47
34177;BME280;20450;49.074;9.158;2024-03-22T12:06:50;99919.31;;;21.62;38.42
34177;BME280;20450;49.074;9.158;2024-03-22T12:09:17;99911.28;;;21.80;38.62
34177;BME280;20450;49.074;9.158;2024-03-22T12:11:43;99908.00;;;21.73;38.51
34177;BME280;20450;49.074;9.158;2024-03-22T12:14:09;99898.06;;;21.87;38.68
34177;BME280;20450;49.074;9.158;2024-03-22T12:16:35;99894.47;;;21.92;38.71
34177;BME280;20450;49.074;9.158;2024-03-22T12:19:02;99884.56;;;21.91;38.91
34177;BME280;20450;49.074;9.158;2024-03-22T12:21:29;99874.09;;;21.93;39.11
34177;BME280;20450;49.074;9.158;2024-03-22T12:23:55;99884.78;;;21.99;37.53
34177;BME280;20450;49.074;9.158;2024-03-22T12:26:22;99894.13;;;22.03;37.25
34177;BME280;20450;49.074;9.158;2024-03-22T12:28:49;99893.31;;;21.98;36.28
34177;BME280;20450;49.074;9.158;2024-03-22T12:31:17;99889.50;;;21.94;37.12
34177;BME280;20450;49.074;9.158;2024-03-22T12:33:44;99879.91;;;21.86;37.37
34177;BME280;20450;49.074;9.158;2024-03-22T12:36:10;99877.22;;;21.76;37.37
34177;BME280;20450;49.074;9.158;2024-03-22T12:38:37;99898.97;;;21.58;35.75
34177;BME280;20450;49.074;9.158;2024-03-22T12:41:03;99902.53;;;21.63;35.41
34177;BME280;20450;49.074;9.158;2024-03-22T12:43:30;99919.88;;;21.59;33.43
34177;BME280;20450;49.074;9.158;2024-03-22T12:45:56;99937.44;;;21.63;33.04
34177;BME280;20450;49.074;9.158;2024-03-22T12:48:22;99927.00;;;21.65;34.34
34177;BME280;20450;49.074;9.158;2024-03-22T12:50:54;99888.06;;;21.32;37.11
34177;BME280;20450;49.074;9.158;2024-03-22T12:53:21;99854.50;;;21.41;38.73